Time;durP1;ratioP1;P1;durP2;ratioP2;P2;SDS_P1;SDS_P2;PMS_P1;PMS_P2;Temp;Humidity;BMP_temperature;BMP_pressure;BME280_temperature;BME280_humidity;BME280_pressure;Samples;Min_cycle;Max_cycle;Signal;HPM_P1;HPM_P2
2022/02/16 00:00:06;;;;;;;4.300001;2.65;;;;;;;1.07;77.50391;95092.58;;;;
2022/02/16 00:01:10;;;;;;;4.300001;2.65;;;;;;;1.07;77.50391;95092.58;;;;
2022/02/16 00:02:11;;;;;;;4.300001;2.65;;;;;;;1.07;77.50391;95092.58;;;;
2022/02/16 00:03:11;;;;;;;4.300001;2.65;;;;;;;1.07;77.50391;95092.58;;;;
2022/02/16 00:04:12;;;;;;;4.300001;2.65;;;;;;;1.07;77.50391;95092.58;;;;
2022/02/16 00:05:13;;;;;;;4.300001;2.65;;;;;;;1.07;77.50391;95092.58;;;;
2022/02/16 00:06:13;;;;;;;4.300001;2.65;;;;;;;1.07;77.50391;95092.58;;;;
2022/02/16 00:07:14;;;;;;;4.300001;2.65;;;;;;;1.07;77.50391;95092.58;;;;
2022/02/16 00:08:14;;;;;;;4.300001;2.65;;;;;;;1.07;77.50391;95092.58;;;;
2022/02/16 00:09:15;;;;;;;4.300001;2.65;;;;;;;1.07;77.50391;95092.58;;;;
2022/02/16 00:10:15;;;;;;;4.300001;2.65;;;;;;;1.07;77.50391;95092.58;;;;
2022/02/16 00:11:17;;;;;;;4.300001;2.65;;;;;;;1.07;77.50391;95092.58;;;;
2022/02/16 00:12:18;;;;;;;4.300001;2.65;;;;;;;1.07;77.50391;95092.58;;;;
2022/02/16 00:13:18;;;;;;;4.300001;2.65;;;;;;;1.07;77.50391;95092.58;;;;
2022/02/16 00:14:19;;;;;;;4.300001;2.65;;;;;;;1.07;77.50391;95092.58;;;;
2022/02/16 00:15:19;;;;;;;4.300001;2.65;;;;;;;1.07;77.50391;95092.58;;;;
2022/02/16 00:16:20;;;;;;;4.300001;2.65;;;;;;;1.07;77.50391;95092.58;;;;
2022/02/16 00:17:20;;;;;;;4.300001;2.65;;;;;;;1.07;77.50391;95092.58;;;;
2022/02/16 00:18:21;;;;;;;4.300001;2.65;;;;;;;1.07;77.50391;95092.58;;;;
2022/02/16 00:19:21;;;;;;;4.300001;2.65;;;;;;;1.07;77.50391;95092.58;;;;
2022/02/16 00:20:22;;;;;;;4.300001;2.65;;;;;;;1.07;77.50391;95092.58;;;;
2022/02/16 00:21:22;;;;;;;2.55;2.15;;;;;;;0.78;77.53516;95073.94;;;;
2022/02/16 00:22:23;;;;;;;2.55;2.15;;;;;;;0.78;77.53516;95073.94;;;;
2022/02/16 00:23:23;;;;;;;2.55;2.15;;;;;;;0.78;77.53516;95073.94;;;;
2022/02/16 00:24:24;;;;;;;2.55;2.15;;;;;;;0.78;77.53516;95073.94;;;;
2022/02/16 00:25:24;;;;;;;2.55;2.15;;;;;;;0.78;77.53516;95073.94;;;;
2022/02/16 00:26:25;;;;;;;2.55;2.15;;;;;;;0.78;77.53516;95073.94;;;;
2022/02/16 00:27:25;;;;;;;2.55;2.15;;;;;;;0.78;77.53516;95073.94;;;;
2022/02/16 00:28:26;;;;;;;2.55;2.15;;;;;;;0.78;77.53516;95073.94;;;;
2022/02/16 00:29:26;;;;;;;2.55;2.15;;;;;;;0.78;77.53516;95073.94;;;;
2022/02/16 00:30:27;;;;;;;2.55;2.15;;;;;;;0.78;77.53516;95073.94;;;;
2022/02/16 00:31:27;;;;;;;2.55;2.15;;;;;;;0.78;77.53516;95073.94;;;;
2022/02/16 00:32:28;;;;;;;1.9;1.6;;;;;;;0.67;77.48438;95065.91;;;;
2022/02/16 00:33:28;;;;;;;1.9;1.6;;;;;;;0.67;77.48438;95065.91;;;;
2022/02/16 00:34:29;;;;;;;1.9;1.6;;;;;;;0.67;77.48438;95065.91;;;;
2022/02/16 00:35:29;;;;;;;1.9;1.6;;;;;;;0.67;77.48438;95065.91;;;;
2022/02/16 00:36:30;;;;;;;1.9;1.6;;;;;;;0.67;77.48438;95065.91;;;;
2022/02/16 00:37:31;;;;;;;1.9;1.6;;;;;;;0.67;77.48438;95065.91;;;;
2022/02/16 00:38:31;;;;;;;1.9;1.6;;;;;;;0.67;77.48438;95065.91;;;;
2022/02/16 00:39:32;;;;;;;1.9;1.6;;;;;;;0.67;77.48438;95065.91;;;;
2022/02/16 00:40:33;;;;;;;1.9;1.6;;;;;;;0.67;77.48438;95065.91;;;;
2022/02/16 00:41:34;;;;;;;1.9;1.6;;;;;;;0.67;77.48438;95065.91;;;;
2022/02/16 00:42:34;;;;;;;1.9;1.6;;;;;;;0.67;77.48438;95065.91;;;;
2022/02/16 00:43:35;;;;;;;1.7;1.4;;;;;;;0.63;77.96875;95045.22;;;;
2022/02/16 00:44:35;;;;;;;1.7;1.4;;;;;;;0.63;77.96875;95045.22;;;;
2022/02/16 00:45:36;;;;;;;1.7;1.4;;;;;;;0.63;77.96875;95045.22;;;;
2022/02/16 00:46:36;;;;;;;1.7;1.4;;;;;;;0.63;77.96875;95045.22;;;;
2022/02/16 00:47:37;;;;;;;1.7;1.4;;;;;;;0.63;77.96875;95045.22;;;;
2022/02/16 00:48:37;;;;;;;1.7;1.4;;;;;;;0.63;77.96875;95045.22;;;;
2022/02/16 00:49:38;;;;;;;1.7;1.4;;;;;;;0.63;77.96875;95045.22;;;;
2022/02/16 00:50:39;;;;;;;1.7;1.4;;;;;;;0.63;77.96875;95045.22;;;;
2022/02/16 00:51:39;;;;;;;1.7;1.4;;;;;;;0.63;77.96875;95045.22;;;;
2022/02/16 00:52:40;;;;;;;1.7;1.4;;;;;;;0.63;77.96875;95045.22;;;;
2022/02/16 00:53:40;;;;;;;1.7;1.2;;;;;;;0.76;77.86523;95035.68;;;;
2022/02/16 00:54:41;;;;;;;1.7;1.2;;;;;;;0.76;77.86523;95035.68;;;;
2022/02/16 00:55:41;;;;;;;1.7;1.2;;;;;;;0.76;77.86523;95035.68;;;;
2022/02/16 00:56:42;;;;;;;1.7;1.2;;;;;;;0.76;77.86523;95035.68;;;;
2022/02/16 00:57:42;;;;;;;1.7;1.2;;;;;;;0.76;77.86523;95035.68;;;;
2022/02/16 00:58:43;;;;;;;1.7;1.2;;;;;;;0.76;77.86523;95035.68;;;;
2022/02/16 00:59:43;;;;;;;1.7;1.2;;;;;;;0.76;77.86523;95035.68;;;;
2022/02/16 01:00:45;;;;;;;1.7;1.2;;;;;;;0.76;77.86523;95035.68;;;;
2022/02/16 01:01:45;;;;;;;1.7;1.2;;;;;;;0.76;77.86523;95035.68;;;;
2022/02/16 01:02:46;;;;;;;1.7;1.2;;;;;;;0.76;77.86523;95035.68;;;;
2022/02/16 01:03:46;;;;;;;1.7;1.2;;;;;;;0.76;77.86523;95035.68;;;;
2022/02/16 01:04:47;;;;;;;1.2;1.1;;;;;;;0.87;77.29199;95021.87;;;;
2022/02/16 01:05:48;;;;;;;1.2;1.1;;;;;;;0.87;77.29199;95021.87;;;;
2022/02/16 01:06:48;;;;;;;1.2;1.1;;;;;;;0.87;77.29199;95021.87;;;;
2022/02/16 01:07:49;;;;;;;1.2;1.1;;;;;;;0.87;77.29199;95021.87;;;;
2022/02/16 01:08:49;;;;;;;1.2;1.1;;;;;;;0.87;77.29199;95021.87;;;;
2022/02/16 01:09:50;;;;;;;1.2;1.1;;;;;;;0.87;77.29199;95021.87;;;;
2022/02/16 01:10:50;;;;;;;1.2;1.1;;;;;;;0.87;77.29199;95021.87;;;;
2022/02/16 01:11:51;;;;;;;1.2;1.1;;;;;;;0.87;77.29199;95021.87;;;;
2022/02/16 01:12:51;;;;;;;1.2;1.1;;;;;;;0.87;77.29199;95021.87;;;;
2022/02/16 01:13:52;;;;;;;1.2;1.1;;;;;;;0.87;77.29199;95021.87;;;;
2022/02/16 01:14:53;;;;;;;1.25;1.15;;;;;;;0.91;76.96289;95020.08;;;;
2022/02/16 01:15:54;;;;;;;1.25;1.15;;;;;;;0.91;76.96289;95020.08;;;;
2022/02/16 01:16:55;;;;;;;1.25;1.15;;;;;;;0.91;76.96289;95020.08;;;;
2022/02/16 01:17:55;;;;;;;1.25;1.15;;;;;;;0.91;76.96289;95020.08;;;;
2022/02/16 01:18:56;;;;;;;1.25;1.15;;;;;;;0.91;76.96289;95020.08;;;;
2022/02/16 01:19:56;;;;;;;1.25;1.15;;;;;;;0.91;76.96289;95020.08;;;;
2022/02/16 01:20:57;;;;;;;1.25;1.15;;;;;;;0.91;76.96289;95020.08;;;;
2022/02/16 01:21:58;;;;;;;1.25;1.15;;;;;;;0.91;76.96289;95020.08;;;;
2022/02/16 01:22:59;;;;;;;1.25;1.15;;;;;;;0.91;76.96289;95020.08;;;;
2022/02/16 01:23:59;;;;;;;1.25;1.15;;;;;;;0.91;76.96289;95020.08;;;;
2022/02/16 01:25:00;;;;;;;1.25;1.15;;;;;;;0.91;76.96289;95020.08;;;;
2022/02/16 01:26:00;;;;;;;1.4;1;;;;;;;0.94;76.81152;95010.9;;;;
2022/02/16 01:27:01;;;;;;;1.4;1;;;;;;;0.94;76.81152;95010.9;;;;
2022/02/16 01:28:02;;;;;;;1.4;1;;;;;;;0.94;76.81152;95010.9;;;;
2022/02/16 01:29:02;;;;;;;1.4;1;;;;;;;0.94;76.81152;95010.9;;;;
2022/02/16 01:30:03;;;;;;;1.4;1;;;;;;;0.94;76.81152;95010.9;;;;
2022/02/16 01:31:05;;;;;;;1.4;1;;;;;;;0.94;76.81152;95010.9;;;;
2022/02/16 01:32:05;;;;;;;1.4;1;;;;;;;0.94;76.81152;95010.9;;;;
2022/02/16 01:33:06;;;;;;;1.4;1;;;;;;;0.94;76.81152;95010.9;;;;
2022/02/16 01:34:07;;;;;;;1.4;1;;;;;;;0.94;76.81152;95010.9;;;;
2022/02/16 01:35:08;;;;;;;1.4;1;;;;;;;0.94;76.81152;95010.9;;;;
2022/02/16 01:36:09;;;;;;;2;1.2;;;;;;;1.02;76.73242;95003.27;;;;
2022/02/16 01:37:10;;;;;;;2;1.2;;;;;;;1.02;76.73242;95003.27;;;;
2022/02/16 01:38:11;;;;;;;2;1.2;;;;;;;1.02;76.73242;95003.27;;;;
2022/02/16 01:39:12;;;;;;;2;1.2;;;;;;;1.02;76.73242;95003.27;;;;
2022/02/16 01:40:13;;;;;;;2;1.2;;;;;;;1.02;76.73242;95003.27;;;;
2022/02/16 01:41:14;;;;;;;2;1.2;;;;;;;1.02;76.73242;95003.27;;;;
2022/02/16 01:42:16;;;;;;;2;1.2;;;;;;;1.02;76.73242;95003.27;;;;
2022/02/16 01:43:18;;;;;;;2;1.2;;;;;;;1.02;76.73242;95003.27;;;;
2022/02/16 01:44:19;;;;;;;2;1.2;;;;;;;1.02;76.73242;95003.27;;;;
2022/02/16 01:45:21;;;;;;;2;1.2;;;;;;;1.02;76.73242;95003.27;;;;
2022/02/16 01:46:26;;;;;;;2;1.2;;;;;;;1.02;76.73242;95003.27;;;;
2022/02/16 01:47:26;;;;;;;1.25;1.15;;;;;;;1.03;76.51465;94984.96;;;;
2022/02/16 01:48:27;;;;;;;1.25;1.15;;;;;;;1.03;76.51465;94984.96;;;;
2022/02/16 01:49:27;;;;;;;1.25;1.15;;;;;;;1.03;76.51465;94984.96;;;;
2022/02/16 01:50:28;;;;;;;1.25;1.15;;;;;;;1.03;76.51465;94984.96;;;;
2022/02/16 01:51:28;;;;;;;1.25;1.15;;;;;;;1.03;76.51465;94984.96;;;;
2022/02/16 01:52:29;;;;;;;1.25;1.15;;;;;;;1.03;76.51465;94984.96;;;;
2022/02/16 01:53:29;;;;;;;1.25;1.15;;;;;;;1.03;76.51465;94984.96;;;;
2022/02/16 01:54:30;;;;;;;1.25;1.15;;;;;;;1.03;76.51465;94984.96;;;;
2022/02/16 01:55:31;;;;;;;1.25;1.15;;;;;;;1.03;76.51465;94984.96;;;;
2022/02/16 01:56:32;;;;;;;1.25;1.15;;;;;;;1.03;76.51465;94984.96;;;;
2022/02/16 01:57:34;;;;;;;1.5;1.1;;;;;;;0.93;76.44336;94980.44;;;;
2022/02/16 01:58:34;;;;;;;1.5;1.1;;;;;;;0.93;76.44336;94980.44;;;;
2022/02/16 01:59:35;;;;;;;1.5;1.1;;;;;;;0.93;76.44336;94980.44;;;;
2022/02/16 02:00:36;;;;;;;1.5;1.1;;;;;;;0.93;76.44336;94980.44;;;;
2022/02/16 02:01:37;;;;;;;1.5;1.1;;;;;;;0.93;76.44336;94980.44;;;;
2022/02/16 02:02:38;;;;;;;1.5;1.1;;;;;;;0.93;76.44336;94980.44;;;;
2022/02/16 02:03:39;;;;;;;1.5;1.1;;;;;;;0.93;76.44336;94980.44;;;;
2022/02/16 02:04:39;;;;;;;1.5;1.1;;;;;;;0.93;76.44336;94980.44;;;;
2022/02/16 02:05:40;;;;;;;1.5;1.1;;;;;;;0.93;76.44336;94980.44;;;;
2022/02/16 02:06:40;;;;;;;1.5;1.1;;;;;;;0.93;76.44336;94980.44;;;;
2022/02/16 02:07:41;;;;;;;1.5;1.1;;;;;;;0.93;76.44336;94980.44;;;;
2022/02/16 02:08:42;;;;;;;1.65;1.1;;;;;;;0.82;76.39258;94954.33;;;;
2022/02/16 02:09:42;;;;;;;1.65;1.1;;;;;;;0.82;76.39258;94954.33;;;;
2022/02/16 02:10:43;;;;;;;1.65;1.1;;;;;;;0.82;76.39258;94954.33;;;;
2022/02/16 02:11:44;;;;;;;1.65;1.1;;;;;;;0.82;76.39258;94954.33;;;;
2022/02/16 02:12:44;;;;;;;1.65;1.1;;;;;;;0.82;76.39258;94954.33;;;;
2022/02/16 02:13:46;;;;;;;1.65;1.1;;;;;;;0.82;76.39258;94954.33;;;;
2022/02/16 02:14:55;;;;;;;1.65;1.1;;;;;;;0.82;76.39258;94954.33;;;;
2022/02/16 02:15:57;;;;;;;1.65;1.1;;;;;;;0.82;76.39258;94954.33;;;;
2022/02/16 02:16:57;;;;;;;1.65;1.1;;;;;;;0.82;76.39258;94954.33;;;;
2022/02/16 02:17:59;;;;;;;1.65;1.1;;;;;;;0.82;76.39258;94954.33;;;;
2022/02/16 02:19:00;;;;;;;1.45;1.05;;;;;;;0.8;76.29688;94935.52;;;;
2022/02/16 02:20:00;;;;;;;1.45;1.05;;;;;;;0.8;76.29688;94935.52;;;;
2022/02/16 02:21:02;;;;;;;1.45;1.05;;;;;;;0.8;76.29688;94935.52;;;;
2022/02/16 02:22:02;;;;;;;1.45;1.05;;;;;;;0.8;76.29688;94935.52;;;;
2022/02/16 02:23:03;;;;;;;1.45;1.05;;;;;;;0.8;76.29688;94935.52;;;;
2022/02/16 02:24:03;;;;;;;1.45;1.05;;;;;;;0.8;76.29688;94935.52;;;;
2022/02/16 02:25:05;;;;;;;1.45;1.05;;;;;;;0.8;76.29688;94935.52;;;;
2022/02/16 02:26:06;;;;;;;1.45;1.05;;;;;;;0.8;76.29688;94935.52;;;;
2022/02/16 02:27:06;;;;;;;1.45;1.05;;;;;;;0.8;76.29688;94935.52;;;;
2022/02/16 02:28:07;;;;;;;1.45;1.05;;;;;;;0.8;76.29688;94935.52;;;;
2022/02/16 02:29:09;;;;;;;1.45;1.05;;;;;;;0.8;76.29688;94935.52;;;;
2022/02/16 02:30:09;;;;;;;1.8;1.15;;;;;;;0.68;75.96094;94932.1;;;;
2022/02/16 02:31:12;;;;;;;1.8;1.15;;;;;;;0.68;75.96094;94932.1;;;;
2022/02/16 02:32:12;;;;;;;1.8;1.15;;;;;;;0.68;75.96094;94932.1;;;;
2022/02/16 02:33:15;;;;;;;1.8;1.15;;;;;;;0.68;75.96094;94932.1;;;;
2022/02/16 02:34:16;;;;;;;1.8;1.15;;;;;;;0.68;75.96094;94932.1;;;;
2022/02/16 02:35:17;;;;;;;1.8;1.15;;;;;;;0.68;75.96094;94932.1;;;;
2022/02/16 02:36:17;;;;;;;1.8;1.15;;;;;;;0.68;75.96094;94932.1;;;;
2022/02/16 02:37:18;;;;;;;1.8;1.15;;;;;;;0.68;75.96094;94932.1;;;;
2022/02/16 02:38:18;;;;;;;1.8;1.15;;;;;;;0.68;75.96094;94932.1;;;;
2022/02/16 02:39:19;;;;;;;1.8;1.15;;;;;;;0.68;75.96094;94932.1;;;;
2022/02/16 02:40:19;;;;;;;2.05;1.2;;;;;;;0.56;75.86621;94926.08;;;;
2022/02/16 02:41:20;;;;;;;2.05;1.2;;;;;;;0.56;75.86621;94926.08;;;;
2022/02/16 02:42:21;;;;;;;2.05;1.2;;;;;;;0.56;75.86621;94926.08;;;;
2022/02/16 02:43:22;;;;;;;2.05;1.2;;;;;;;0.56;75.86621;94926.08;;;;
2022/02/16 02:44:22;;;;;;;2.05;1.2;;;;;;;0.56;75.86621;94926.08;;;;
2022/02/16 02:45:23;;;;;;;2.05;1.2;;;;;;;0.56;75.86621;94926.08;;;;
2022/02/16 02:46:24;;;;;;;2.05;1.2;;;;;;;0.56;75.86621;94926.08;;;;
2022/02/16 02:47:24;;;;;;;2.05;1.2;;;;;;;0.56;75.86621;94926.08;;;;
2022/02/16 02:48:25;;;;;;;2.05;1.2;;;;;;;0.56;75.86621;94926.08;;;;
2022/02/16 02:49:26;;;;;;;2.05;1.2;;;;;;;0.56;75.86621;94926.08;;;;
2022/02/16 02:50:26;;;;;;;2.05;1.2;;;;;;;0.56;75.86621;94926.08;;;;
2022/02/16 02:51:27;;;;;;;1.45;1;;;;;;;0.43;75.78027;94912.64;;;;
2022/02/16 02:52:28;;;;;;;1.45;1;;;;;;;0.43;75.78027;94912.64;;;;
2022/02/16 02:53:28;;;;;;;1.45;1;;;;;;;0.43;75.78027;94912.64;;;;
2022/02/16 02:54:29;;;;;;;1.45;1;;;;;;;0.43;75.78027;94912.64;;;;
2022/02/16 02:55:30;;;;;;;1.45;1;;;;;;;0.43;75.78027;94912.64;;;;
2022/02/16 02:56:30;;;;;;;1.45;1;;;;;;;0.43;75.78027;94912.64;;;;
2022/02/16 02:57:31;;;;;;;1.45;1;;;;;;;0.43;75.78027;94912.64;;;;
2022/02/16 02:58:32;;;;;;;1.45;1;;;;;;;0.43;75.78027;94912.64;;;;
2022/02/16 02:59:32;;;;;;;1.45;1;;;;;;;0.43;75.78027;94912.64;;;;
2022/02/16 03:00:33;;;;;;;1.45;1;;;;;;;0.43;75.78027;94912.64;;;;
2022/02/16 03:01:34;;;;;;;1.85;1.3;;;;;;;0.3;75.74805;94900.01;;;;
2022/02/16 03:02:34;;;;;;;1.85;1.3;;;;;;;0.3;75.74805;94900.01;;;;
2022/02/16 03:03:35;;;;;;;1.85;1.3;;;;;;;0.3;75.74805;94900.01;;;;
2022/02/16 03:04:36;;;;;;;1.85;1.3;;;;;;;0.3;75.74805;94900.01;;;;
2022/02/16 03:05:36;;;;;;;1.85;1.3;;;;;;;0.3;75.74805;94900.01;;;;
2022/02/16 03:06:37;;;;;;;1.85;1.3;;;;;;;0.3;75.74805;94900.01;;;;
2022/02/16 03:07:37;;;;;;;1.85;1.3;;;;;;;0.3;75.74805;94900.01;;;;
2022/02/16 03:08:38;;;;;;;1.85;1.3;;;;;;;0.3;75.74805;94900.01;;;;
2022/02/16 03:09:38;;;;;;;1.85;1.3;;;;;;;0.3;75.74805;94900.01;;;;
2022/02/16 03:10:39;;;;;;;1.85;1.3;;;;;;;0.3;75.74805;94900.01;;;;
2022/02/16 03:11:39;;;;;;;1.85;1.3;;;;;;;0.3;75.74805;94900.01;;;;
2022/02/16 03:12:40;;;;;;;1.6;1.5;;;;;;;0.28;75.72168;94890.56;;;;
2022/02/16 03:13:40;;;;;;;1.6;1.5;;;;;;;0.28;75.72168;94890.56;;;;
2022/02/16 03:14:41;;;;;;;1.6;1.5;;;;;;;0.28;75.72168;94890.56;;;;
2022/02/16 03:15:41;;;;;;;1.6;1.5;;;;;;;0.28;75.72168;94890.56;;;;
2022/02/16 03:16:42;;;;;;;1.6;1.5;;;;;;;0.28;75.72168;94890.56;;;;
2022/02/16 03:17:42;;;;;;;1.6;1.5;;;;;;;0.28;75.72168;94890.56;;;;
2022/02/16 03:18:43;;;;;;;1.6;1.5;;;;;;;0.28;75.72168;94890.56;;;;
2022/02/16 03:19:44;;;;;;;1.6;1.5;;;;;;;0.28;75.72168;94890.56;;;;
2022/02/16 03:20:44;;;;;;;1.6;1.5;;;;;;;0.28;75.72168;94890.56;;;;
2022/02/16 03:21:45;;;;;;;1.6;1.5;;;;;;;0.28;75.72168;94890.56;;;;
2022/02/16 03:22:45;;;;;;;1.6;1.5;;;;;;;0.28;75.72168;94890.56;;;;
2022/02/16 03:23:46;;;;;;;1.6;1.45;;;;;;;0.32;75.55273;94867.85;;;;
2022/02/16 03:24:46;;;;;;;1.6;1.45;;;;;;;0.32;75.55273;94867.85;;;;
2022/02/16 03:25:47;;;;;;;1.6;1.45;;;;;;;0.32;75.55273;94867.85;;;;
2022/02/16 03:26:47;;;;;;;1.6;1.45;;;;;;;0.32;75.55273;94867.85;;;;
2022/02/16 03:27:48;;;;;;;1.6;1.45;;;;;;;0.32;75.55273;94867.85;;;;
2022/02/16 03:28:48;;;;;;;1.6;1.45;;;;;;;0.32;75.55273;94867.85;;;;
2022/02/16 03:29:49;;;;;;;1.6;1.45;;;;;;;0.32;75.55273;94867.85;;;;
2022/02/16 03:30:50;;;;;;;1.6;1.45;;;;;;;0.32;75.55273;94867.85;;;;
2022/02/16 03:31:50;;;;;;;1.6;1.45;;;;;;;0.32;75.55273;94867.85;;;;
2022/02/16 03:32:51;;;;;;;1.6;1.45;;;;;;;0.32;75.55273;94867.85;;;;
2022/02/16 03:33:51;;;;;;;1.6;1.5;;;;;;;0.37;75.57031;94865.58;;;;
2022/02/16 03:34:52;;;;;;;1.6;1.5;;;;;;;0.37;75.57031;94865.58;;;;
2022/02/16 03:35:52;;;;;;;1.6;1.5;;;;;;;0.37;75.57031;94865.58;;;;
2022/02/16 03:36:53;;;;;;;1.6;1.5;;;;;;;0.37;75.57031;94865.58;;;;
2022/02/16 03:37:53;;;;;;;1.6;1.5;;;;;;;0.37;75.57031;94865.58;;;;
2022/02/16 03:38:54;;;;;;;1.6;1.5;;;;;;;0.37;75.57031;94865.58;;;;
2022/02/16 03:39:55;;;;;;;1.6;1.5;;;;;;;0.37;75.57031;94865.58;;;;
2022/02/16 03:40:56;;;;;;;1.6;1.5;;;;;;;0.37;75.57031;94865.58;;;;
2022/02/16 03:41:56;;;;;;;1.6;1.5;;;;;;;0.37;75.57031;94865.58;;;;
2022/02/16 03:42:57;;;;;;;1.6;1.5;;;;;;;0.37;75.57031;94865.58;;;;
2022/02/16 03:43:57;;;;;;;1.6;1.5;;;;;;;0.37;75.57031;94865.58;;;;
2022/02/16 03:44:58;;;;;;;1.6;1.4;;;;;;;0.42;75.60254;94859.12;;;;
2022/02/16 03:45:58;;;;;;;1.6;1.4;;;;;;;0.42;75.60254;94859.12;;;;
2022/02/16 03:46:59;;;;;;;1.6;1.4;;;;;;;0.42;75.60254;94859.12;;;;
2022/02/16 03:48:00;;;;;;;1.6;1.4;;;;;;;0.42;75.60254;94859.12;;;;
2022/02/16 03:49:00;;;;;;;1.6;1.4;;;;;;;0.42;75.60254;94859.12;;;;
2022/02/16 03:50:01;;;;;;;1.6;1.4;;;;;;;0.42;75.60254;94859.12;;;;
2022/02/16 03:51:03;;;;;;;1.6;1.4;;;;;;;0.42;75.60254;94859.12;;;;
2022/02/16 03:52:03;;;;;;;1.6;1.4;;;;;;;0.42;75.60254;94859.12;;;;
2022/02/16 03:53:04;;;;;;;1.6;1.4;;;;;;;0.42;75.60254;94859.12;;;;
2022/02/16 03:54:05;;;;;;;1.6;1.4;;;;;;;0.42;75.60254;94859.12;;;;
2022/02/16 03:55:05;;;;;;;1.6;1.35;;;;;;;0.52;75.61914;94859.64;;;;
2022/02/16 03:56:07;;;;;;;1.6;1.35;;;;;;;0.52;75.61914;94859.64;;;;
2022/02/16 03:57:07;;;;;;;1.6;1.35;;;;;;;0.52;75.61914;94859.64;;;;
2022/02/16 03:58:08;;;;;;;1.6;1.35;;;;;;;0.52;75.61914;94859.64;;;;
2022/02/16 03:59:08;;;;;;;1.6;1.35;;;;;;;0.52;75.61914;94859.64;;;;
2022/02/16 04:00:09;;;;;;;1.6;1.35;;;;;;;0.52;75.61914;94859.64;;;;
2022/02/16 04:01:11;;;;;;;1.6;1.35;;;;;;;0.52;75.61914;94859.64;;;;
2022/02/16 04:02:12;;;;;;;1.6;1.35;;;;;;;0.52;75.61914;94859.64;;;;
2022/02/16 04:03:12;;;;;;;1.6;1.35;;;;;;;0.52;75.61914;94859.64;;;;
2022/02/16 04:04:13;;;;;;;1.6;1.35;;;;;;;0.52;75.61914;94859.64;;;;
2022/02/16 04:05:13;;;;;;;1.6;1.35;;;;;;;0.52;75.61914;94859.64;;;;
2022/02/16 04:06:14;;;;;;;1.6;1.35;;;;;;;0.52;75.61914;94859.64;;;;
2022/02/16 04:07:15;;;;;;;1.6;1.35;;;;;;;0.52;75.61914;94859.64;;;;
2022/02/16 04:08:16;;;;;;;1.6;1.35;;;;;;;0.52;75.61914;94859.64;;;;
2022/02/16 04:09:16;;;;;;;1.6;1.35;;;;;;;0.52;75.61914;94859.64;;;;
2022/02/16 04:10:17;;;;;;;1.6;1.35;;;;;;;0.52;75.61914;94859.64;;;;
2022/02/16 04:11:20;;;;;;;1.6;1.35;;;;;;;0.52;75.61914;94859.64;;;;
2022/02/16 04:12:21;;;;;;;1.6;1.35;;;;;;;0.52;75.61914;94859.64;;;;
2022/02/16 04:13:21;;;;;;;1.6;1.35;;;;;;;0.52;75.61914;94859.64;;;;
2022/02/16 04:14:22;;;;;;;1.6;1.35;;;;;;;0.52;75.61914;94859.64;;;;
2022/02/16 04:15:22;;;;;;;1.6;1.35;;;;;;;0.52;75.61914;94859.64;;;;
2022/02/16 04:16:23;;;;;;;2.2;1.35;;;;;;;0.74;75.59473;94841.51;;;;
2022/02/16 04:17:24;;;;;;;2.2;1.35;;;;;;;0.74;75.59473;94841.51;;;;
2022/02/16 04:18:24;;;;;;;2.2;1.35;;;;;;;0.74;75.59473;94841.51;;;;
2022/02/16 04:19:25;;;;;;;2.2;1.35;;;;;;;0.74;75.59473;94841.51;;;;
2022/02/16 04:20:25;;;;;;;2.2;1.35;;;;;;;0.74;75.59473;94841.51;;;;
2022/02/16 04:21:26;;;;;;;2.2;1.35;;;;;;;0.74;75.59473;94841.51;;;;
2022/02/16 04:22:27;;;;;;;2.2;1.35;;;;;;;0.74;75.59473;94841.51;;;;
2022/02/16 04:23:27;;;;;;;2.2;1.35;;;;;;;0.74;75.59473;94841.51;;;;
2022/02/16 04:24:28;;;;;;;2.2;1.35;;;;;;;0.74;75.59473;94841.51;;;;
2022/02/16 04:25:28;;;;;;;2.2;1.35;;;;;;;0.74;75.59473;94841.51;;;;
2022/02/16 04:26:29;;;;;;;2.2;1.35;;;;;;;0.74;75.59473;94841.51;;;;
2022/02/16 04:27:29;;;;;;;1.3;1.2;;;;;;;0.76;75.49512;94826.62;;;;
2022/02/16 04:28:30;;;;;;;1.3;1.2;;;;;;;0.76;75.49512;94826.62;;;;
2022/02/16 04:29:30;;;;;;;1.3;1.2;;;;;;;0.76;75.49512;94826.62;;;;
2022/02/16 04:30:31;;;;;;;1.3;1.2;;;;;;;0.76;75.49512;94826.62;;;;
2022/02/16 04:31:32;;;;;;;1.3;1.2;;;;;;;0.76;75.49512;94826.62;;;;
2022/02/16 04:32:33;;;;;;;1.3;1.2;;;;;;;0.76;75.49512;94826.62;;;;
2022/02/16 04:33:34;;;;;;;1.3;1.2;;;;;;;0.76;75.49512;94826.62;;;;
2022/02/16 04:34:35;;;;;;;1.3;1.2;;;;;;;0.76;75.49512;94826.62;;;;
2022/02/16 04:35:35;;;;;;;1.3;1.2;;;;;;;0.76;75.49512;94826.62;;;;
2022/02/16 04:36:36;;;;;;;1.3;1.2;;;;;;;0.76;75.49512;94826.62;;;;
2022/02/16 04:37:37;;;;;;;1.3;1.2;;;;;;;0.75;75.70215;94817.44;;;;
2022/02/16 04:38:38;;;;;;;1.3;1.2;;;;;;;0.75;75.70215;94817.44;;;;
2022/02/16 04:39:38;;;;;;;1.3;1.2;;;;;;;0.75;75.70215;94817.44;;;;
2022/02/16 04:40:39;;;;;;;1.3;1.2;;;;;;;0.75;75.70215;94817.44;;;;
2022/02/16 04:41:39;;;;;;;1.3;1.2;;;;;;;0.75;75.70215;94817.44;;;;
2022/02/16 04:42:40;;;;;;;1.3;1.2;;;;;;;0.75;75.70215;94817.44;;;;
2022/02/16 04:43:40;;;;;;;1.3;1.2;;;;;;;0.75;75.70215;94817.44;;;;
2022/02/16 04:44:41;;;;;;;1.3;1.2;;;;;;;0.75;75.70215;94817.44;;;;
2022/02/16 04:45:41;;;;;;;1.3;1.2;;;;;;;0.75;75.70215;94817.44;;;;
2022/02/16 04:46:43;;;;;;;1.3;1.2;;;;;;;0.75;75.70215;94817.44;;;;
2022/02/16 04:47:45;;;;;;;1.3;1.2;;;;;;;0.75;75.70215;94817.44;;;;
2022/02/16 04:48:45;;;;;;;1.45;1.2;;;;;;;0.91;75.76074;94803.5;;;;
2022/02/16 04:49:46;;;;;;;1.45;1.2;;;;;;;0.91;75.76074;94803.5;;;;
2022/02/16 04:50:47;;;;;;;1.45;1.2;;;;;;;0.91;75.76074;94803.5;;;;
2022/02/16 04:51:47;;;;;;;1.45;1.2;;;;;;;0.91;75.76074;94803.5;;;;
2022/02/16 04:52:49;;;;;;;1.45;1.2;;;;;;;0.91;75.76074;94803.5;;;;
2022/02/16 04:53:50;;;;;;;1.45;1.2;;;;;;;0.91;75.76074;94803.5;;;;
2022/02/16 04:54:50;;;;;;;1.45;1.2;;;;;;;0.91;75.76074;94803.5;;;;
2022/02/16 04:55:52;;;;;;;1.45;1.2;;;;;;;0.91;75.76074;94803.5;;;;
2022/02/16 04:56:53;;;;;;;1.45;1.2;;;;;;;0.91;75.76074;94803.5;;;;
2022/02/16 04:57:53;;;;;;;1.45;1.2;;;;;;;0.91;75.76074;94803.5;;;;
2022/02/16 04:58:54;;;;;;;1.75;1.3;;;;;;;1.08;75.74902;94793.45;;;;
2022/02/16 04:59:58;;;;;;;1.75;1.3;;;;;;;1.08;75.74902;94793.45;;;;
2022/02/16 05:00:59;;;;;;;1.75;1.3;;;;;;;1.08;75.74902;94793.45;;;;
2022/02/16 05:01:59;;;;;;;1.75;1.3;;;;;;;1.08;75.74902;94793.45;;;;
2022/02/16 05:03:00;;;;;;;1.75;1.3;;;;;;;1.08;75.74902;94793.45;;;;
2022/02/16 05:04:02;;;;;;;1.75;1.3;;;;;;;1.08;75.74902;94793.45;;;;
2022/02/16 05:05:03;;;;;;;1.75;1.3;;;;;;;1.08;75.74902;94793.45;;;;
2022/02/16 05:06:05;;;;;;;1.75;1.3;;;;;;;1.08;75.74902;94793.45;;;;
2022/02/16 05:07:05;;;;;;;1.75;1.3;;;;;;;1.08;75.74902;94793.45;;;;
2022/02/16 05:08:06;;;;;;;1.75;1.3;;;;;;;1.08;75.74902;94793.45;;;;
2022/02/16 05:09:06;;;;;;;1.75;1.3;;;;;;;1.08;75.74902;94793.45;;;;
2022/02/16 05:10:08;;;;;;;2;1.2;;;;;;;1.17;75.58594;94783.92;;;;
2022/02/16 05:11:09;;;;;;;2;1.2;;;;;;;1.17;75.58594;94783.92;;;;
2022/02/16 05:12:10;;;;;;;2;1.2;;;;;;;1.17;75.58594;94783.92;;;;
2022/02/16 05:13:10;;;;;;;2;1.2;;;;;;;1.17;75.58594;94783.92;;;;
2022/02/16 05:14:11;;;;;;;2;1.2;;;;;;;1.17;75.58594;94783.92;;;;
2022/02/16 05:15:11;;;;;;;2;1.2;;;;;;;1.17;75.58594;94783.92;;;;
2022/02/16 05:16:12;;;;;;;2;1.2;;;;;;;1.17;75.58594;94783.92;;;;
2022/02/16 05:17:12;;;;;;;2;1.2;;;;;;;1.17;75.58594;94783.92;;;;
2022/02/16 05:18:13;;;;;;;2;1.2;;;;;;;1.17;75.58594;94783.92;;;;
2022/02/16 05:19:14;;;;;;;2;1.2;;;;;;;1.17;75.58594;94783.92;;;;
2022/02/16 05:20:14;;;;;;;2;1.2;;;;;;;1.17;75.58594;94783.92;;;;
2022/02/16 05:21:15;;;;;;;1.3;1.2;;;;;;;1.2;75.61328;94777.29;;;;
2022/02/16 05:22:16;;;;;;;1.3;1.2;;;;;;;1.2;75.61328;94777.29;;;;
2022/02/16 05:23:16;;;;;;;1.3;1.2;;;;;;;1.2;75.61328;94777.29;;;;
2022/02/16 05:24:17;;;;;;;1.3;1.2;;;;;;;1.2;75.61328;94777.29;;;;
2022/02/16 05:25:17;;;;;;;1.3;1.2;;;;;;;1.2;75.61328;94777.29;;;;
2022/02/16 05:26:18;;;;;;;1.3;1.2;;;;;;;1.2;75.61328;94777.29;;;;
2022/02/16 05:27:19;;;;;;;1.3;1.2;;;;;;;1.2;75.61328;94777.29;;;;
2022/02/16 05:28:19;;;;;;;1.3;1.2;;;;;;;1.2;75.61328;94777.29;;;;
2022/02/16 05:29:20;;;;;;;1.3;1.2;;;;;;;1.2;75.61328;94777.29;;;;
2022/02/16 05:30:20;;;;;;;1.3;1.2;;;;;;;1.2;75.61328;94777.29;;;;
2022/02/16 05:31:21;;;;;;;1.4;1.15;;;;;;;1.19;75.55957;94755.19;;;;
2022/02/16 05:32:21;;;;;;;1.4;1.15;;;;;;;1.19;75.55957;94755.19;;;;
2022/02/16 05:33:22;;;;;;;1.4;1.15;;;;;;;1.19;75.55957;94755.19;;;;
2022/02/16 05:34:22;;;;;;;1.4;1.15;;;;;;;1.19;75.55957;94755.19;;;;
2022/02/16 05:35:22;;;;;;;1.4;1.15;;;;;;;1.19;75.55957;94755.19;;;;
2022/02/16 05:36:23;;;;;;;1.4;1.15;;;;;;;1.19;75.55957;94755.19;;;;
2022/02/16 05:37:24;;;;;;;1.4;1.15;;;;;;;1.19;75.55957;94755.19;;;;
2022/02/16 05:38:24;;;;;;;1.4;1.15;;;;;;;1.19;75.55957;94755.19;;;;
2022/02/16 05:39:25;;;;;;;1.4;1.15;;;;;;;1.19;75.55957;94755.19;;;;
2022/02/16 05:40:26;;;;;;;1.4;1.15;;;;;;;1.19;75.55957;94755.19;;;;
2022/02/16 05:41:28;;;;;;;1.4;1.15;;;;;;;1.19;75.55957;94755.19;;;;
2022/02/16 05:42:28;;;;;;;1.6;1.2;;;;;;;1.19;75.62207;94754.78;;;;
2022/02/16 05:43:29;;;;;;;1.6;1.2;;;;;;;1.19;75.62207;94754.78;;;;
2022/02/16 05:44:29;;;;;;;1.6;1.2;;;;;;;1.19;75.62207;94754.78;;;;
2022/02/16 05:45:31;;;;;;;1.6;1.2;;;;;;;1.19;75.62207;94754.78;;;;
2022/02/16 05:46:31;;;;;;;1.6;1.2;;;;;;;1.19;75.62207;94754.78;;;;
2022/02/16 05:47:32;;;;;;;1.6;1.2;;;;;;;1.19;75.62207;94754.78;;;;
2022/02/16 05:48:32;;;;;;;1.6;1.2;;;;;;;1.19;75.62207;94754.78;;;;
2022/02/16 05:49:33;;;;;;;1.6;1.2;;;;;;;1.19;75.62207;94754.78;;;;
2022/02/16 05:50:34;;;;;;;1.6;1.2;;;;;;;1.19;75.62207;94754.78;;;;
2022/02/16 05:51:35;;;;;;;1.6;1.2;;;;;;;1.19;75.62207;94754.78;;;;
2022/02/16 05:52:36;;;;;;;1.7;1.2;;;;;;;1.2;75.55078;94735.6;;;;
2022/02/16 05:53:37;;;;;;;1.7;1.2;;;;;;;1.2;75.55078;94735.6;;;;
2022/02/16 05:54:38;;;;;;;1.7;1.2;;;;;;;1.2;75.55078;94735.6;;;;
2022/02/16 05:55:39;;;;;;;1.7;1.2;;;;;;;1.2;75.55078;94735.6;;;;